sensor_id;sensor_type;location;lat;lon;timestamp;temperature;humidity
20345;DHT22;10330;48.816;9.278;2023-02-26T00:00:34;1.40;99.90
20345;DHT22;10330;48.816;9.278;2023-02-26T00:03:01;1.40;99.90
20345;DHT22;10330;48.816;9.278;2023-02-26T00:05:27;1.30;99.90
20345;DHT22;10330;48.816;9.278;2023-02-26T00:07:53;1.30;99.90
20345;DHT22;10330;48.816;9.278;2023-02-26T00:10:20;1.30;99.90
20345;DHT22;10330;48.816;9.278;2023-02-26T00:12:47;1.30;99.90
20345;DHT22;10330;48.816;9.278;2023-02-26T00:15:21;1.20;99.90
20345;DHT22;10330;48.816;9.278;2023-02-26T00:17:53;1.20;99.90
20345;DHT22;10330;48.816;9.278;2023-02-26T00:20:27;1.20;99.90
20345;DHT22;10330;48.816;9.278;2023-02-26T00:22:54;1.20;99.90
20345;DHT22;10330;48.816;9.278;2023-02-26T00:26:00;1.00;99.90
20345;DHT22;10330;48.816;9.278;2023-02-26T00:28:58;1.10;99.90
20345;DHT22;10330;48.816;9.278;2023-02-26T00:32:06;1.10;99.90
20345;DHT22;10330;48.816;9.278;2023-02-26T00:45:47;0.90;99.90
20345;DHT22;10330;48.816;9.278;2023-02-26T00:57:01;0.70;99.90
20345;DHT22;10330;48.816;9.278;2023-02-26T00:59:39;0.70;99.90
20345;DHT22;10330;48.816;9.278;2023-02-26T01:02:39;0.70;99.90
20345;DHT22;10330;48.816;9.278;2023-02-26T01:05:14;0.70;99.90
20345;DHT22;10330;48.816;9.278;2023-02-26T01:08:18;0.70;99.90
20345;DHT22;10330;48.816;9.278;2023-02-26T01:11:00;0.70;99.90
20345;DHT22;10330;48.816;9.278;2023-02-26T01:16:23;0.60;99.90
20345;DHT22;10330;48.816;9.278;2023-02-26T01:19:33;0.60;99.90
20345;DHT22;10330;48.816;9.278;2023-02-26T01:22:38;0.50;99.90
20345;DHT22;10330;48.816;9.278;2023-02-26T01:25:22;0.40;99.90
20345;DHT22;10330;48.816;9.278;2023-02-26T01:27:55;0.50;99.90
20345;DHT22;10330;48.816;9.278;2023-02-26T01:30:35;0.40;99.90
20345;DHT22;10330;48.816;9.278;2023-02-26T01:33:39;0.30;99.90
20345;DHT22;10330;48.816;9.278;2023-02-26T01:36:35;0.30;99.90
20345;DHT22;10330;48.816;9.278;2023-02-26T01:42:35;0.20;99.90
20345;DHT22;10330;48.816;9.278;2023-02-26T01:45:18;0.20;99.90
20345;DHT22;10330;48.816;9.278;2023-02-26T01:48:16;0.20;99.90
20345;DHT22;10330;48.816;9.278;2023-02-26T01:50:45;0.10;99.90
20345;DHT22;10330;48.816;9.278;2023-02-26T01:53:21;0.10;99.90
20345;DHT22;10330;48.816;9.278;2023-02-26T01:56:30;0.00;99.90
20345;DHT22;10330;48.816;9.278;2023-02-26T02:03:00;0.00;99.90
20345;DHT22;10330;48.816;9.278;2023-02-26T02:06:01;0.00;99.90
20345;DHT22;10330;48.816;9.278;2023-02-26T02:08:43;-0.10;99.90
20345;DHT22;10330;48.816;9.278;2023-02-26T02:11:20;-0.10;99.90
20345;DHT22;10330;48.816;9.278;2023-02-26T02:26:09;-0.20;99.90
20345;DHT22;10330;48.816;9.278;2023-02-26T02:31:30;-0.30;99.90
20345;DHT22;10330;48.816;9.278;2023-02-26T02:34:20;-0.30;99.90
20345;DHT22;10330;48.816;9.278;2023-02-26T02:37:01;-0.40;99.90
20345;DHT22;10330;48.816;9.278;2023-02-26T02:39:42;-0.40;99.90
20345;DHT22;10330;48.816;9.278;2023-02-26T02:44:43;-0.40;99.90
20345;DHT22;10330;48.816;9.278;2023-02-26T02:47:17;-0.40;99.90
20345;DHT22;10330;48.816;9.278;2023-02-26T02:57:26;-0.40;99.90
20345;DHT22;10330;48.816;9.278;2023-02-26T03:00:11;-0.40;99.90
20345;DHT22;10330;48.816;9.278;2023-02-26T03:03:34;-0.40;99.90
20345;DHT22;10330;48.816;9.278;2023-02-26T03:06:26;-0.50;99.90
20345;DHT22;10330;48.816;9.278;2023-02-26T03:09:07;-0.60;99.90
20345;DHT22;10330;48.816;9.278;2023-02-26T03:12:16;-0.60;99.90
20345;DHT22;10330;48.816;9.278;2023-02-26T03:23:34;-0.60;99.90
20345;DHT22;10330;48.816;9.278;2023-02-26T03:27:12;-0.60;99.90
20345;DHT22;10330;48.816;9.278;2023-02-26T03:33:11;-0.60;99.90
20345;DHT22;10330;48.816;9.278;2023-02-26T03:39:57;-0.60;99.90
20345;DHT22;10330;48.816;9.278;2023-02-26T03:45:47;-0.70;99.90
20345;DHT22;10330;48.816;9.278;2023-02-26T03:48:50;-0.70;99.90
20345;DHT22;10330;48.816;9.278;2023-02-26T03:51:26;-0.80;99.90
20345;DHT22;10330;48.816;9.278;2023-02-26T03:55:03;-0.80;99.90
20345;DHT22;10330;48.816;9.278;2023-02-26T03:57:55;-0.90;99.90
20345;DHT22;10330;48.816;9.278;2023-02-26T04:00:58;-0.90;99.90
20345;DHT22;10330;48.816;9.278;2023-02-26T04:03:37;-1.10;99.90
20345;DHT22;10330;48.816;9.278;2023-02-26T04:06:32;-1.00;99.90
20345;DHT22;10330;48.816;9.278;2023-02-26T04:09:05;-1.00;99.90
20345;DHT22;10330;48.816;9.278;2023-02-26T04:11:45;-0.90;99.90
20345;DHT22;10330;48.816;9.278;2023-02-26T04:14:17;-1.00;99.90
20345;DHT22;10330;48.816;9.278;2023-02-26T04:16:52;-1.00;99.90
20345;DHT22;10330;48.816;9.278;2023-02-26T04:19:29;-1.00;99.90
20345;DHT22;10330;48.816;9.278;2023-02-26T04:21:55;-0.90;99.90
20345;DHT22;10330;48.816;9.278;2023-02-26T04:24:30;-1.00;99.90
20345;DHT22;10330;48.816;9.278;2023-02-26T04:27:50;-1.00;99.90
20345;DHT22;10330;48.816;9.278;2023-02-26T04:30:50;-1.00;99.90
20345;DHT22;10330;48.816;9.278;2023-02-26T04:33:56;-1.00;99.90
20345;DHT22;10330;48.816;9.278;2023-02-26T04:36:30;-1.00;99.90
20345;DHT22;10330;48.816;9.278;2023-02-26T04:39:03;-1.00;99.90
20345;DHT22;10330;48.816;9.278;2023-02-26T04:41:34;-1.10;99.90
20345;DHT22;10330;48.816;9.278;2023-02-26T04:44:02;-1.10;99.90
20345;DHT22;10330;48.816;9.278;2023-02-26T04:46:31;-1.10;99.90
20345;DHT22;10330;48.816;9.278;2023-02-26T04:49:04;-1.10;99.90
20345;DHT22;10330;48.816;9.278;2023-02-26T04:51:31;-1.10;99.90
20345;DHT22;10330;48.816;9.278;2023-02-26T04:54:00;-1.10;99.90
20345;DHT22;10330;48.816;9.278;2023-02-26T04:56:27;-1.10;99.90
20345;DHT22;10330;48.816;9.278;2023-02-26T04:59:10;-1.10;99.90
20345;DHT22;10330;48.816;9.278;2023-02-26T05:01:54;-1.10;99.90
20345;DHT22;10330;48.816;9.278;2023-02-26T05:04:20;-1.20;99.90
20345;DHT22;10330;48.816;9.278;2023-02-26T05:07:13;-1.20;99.90
20345;DHT22;10330;48.816;9.278;2023-02-26T05:09:42;-1.30;99.90
20345;DHT22;10330;48.816;9.278;2023-02-26T05:12:12;-1.30;99.90
20345;DHT22;10330;48.816;9.278;2023-02-26T05:14:44;-1.20;99.90
20345;DHT22;10330;48.816;9.278;2023-02-26T05:17:15;-1.20;99.90
20345;DHT22;10330;48.816;9.278;2023-02-26T05:19:45;-1.20;99.90
20345;DHT22;10330;48.816;9.278;2023-02-26T05:22:16;-1.20;99.90
20345;DHT22;10330;48.816;9.278;2023-02-26T05:24:49;-1.30;99.90
20345;DHT22;10330;48.816;9.278;2023-02-26T05:27:25;-1.30;99.90
20345;DHT22;10330;48.816;9.278;2023-02-26T05:29:56;-1.30;99.90
20345;DHT22;10330;48.816;9.278;2023-02-26T05:32:23;-1.40;99.90
20345;DHT22;10330;48.816;9.278;2023-02-26T05:34:55;-1.30;99.90
20345;DHT22;10330;48.816;9.278;2023-02-26T05:37:22;-1.40;99.90
20345;DHT22;10330;48.816;9.278;2023-02-26T05:39:48;-1.40;99.90
20345;DHT22;10330;48.816;9.278;2023-02-26T05:42:14;-1.50;99.90
20345;DHT22;10330;48.816;9.278;2023-02-26T05:44:41;-1.40;99.90
20345;DHT22;10330;48.816;9.278;2023-02-26T05:47:07;-1.40;99.90
20345;DHT22;10330;48.816;9.278;2023-02-26T05:49:34;-1.50;99.90
20345;DHT22;10330;48.816;9.278;2023-02-26T06:08:06;-1.80;99.90
20345;DHT22;10330;48.816;9.278;2023-02-26T06:15:52;-1.80;99.90
20345;DHT22;10330;48.816;9.278;2023-02-26T06:23:24;-1.80;99.90
20345;DHT22;10330;48.816;9.278;2023-02-26T06:25:51;-1.70;99.90
20345;DHT22;10330;48.816;9.278;2023-02-26T06:28:17;-1.80;99.90
20345;DHT22;10330;48.816;9.278;2023-02-26T06:30:44;-1.80;99.90
20345;DHT22;10330;48.816;9.278;2023-02-26T06:33:14;-1.70;99.90
20345;DHT22;10330;48.816;9.278;2023-02-26T06:35:40;-1.70;99.90
20345;DHT22;10330;48.816;9.278;2023-02-26T06:38:07;-1.80;99.90
20345;DHT22;10330;48.816;9.278;2023-02-26T06:40:34;-1.60;99.90
20345;DHT22;10330;48.816;9.278;2023-02-26T06:43:00;-1.50;99.90
20345;DHT22;10330;48.816;9.278;2023-02-26T06:45:26;-1.50;99.90
20345;DHT22;10330;48.816;9.278;2023-02-26T06:47:53;-1.50;99.90
20345;DHT22;10330;48.816;9.278;2023-02-26T06:50:22;-1.50;99.90
20345;DHT22;10330;48.816;9.278;2023-02-26T06:52:48;-1.40;99.90
20345;DHT22;10330;48.816;9.278;2023-02-26T06:55:16;-1.40;99.90
20345;DHT22;10330;48.816;9.278;2023-02-26T06:57:42;-1.30;99.90
20345;DHT22;10330;48.816;9.278;2023-02-26T07:00:09;-1.30;99.90
20345;DHT22;10330;48.816;9.278;2023-02-26T07:02:36;-1.20;99.90
20345;DHT22;10330;48.816;9.278;2023-02-26T07:05:05;-1.20;99.90
20345;DHT22;10330;48.816;9.278;2023-02-26T07:07:32;-1.20;99.90
20345;DHT22;10330;48.816;9.278;2023-02-26T07:09:58;-1.10;99.90
20345;DHT22;10330;48.816;9.278;2023-02-26T07:12:25;-1.00;99.90
20345;DHT22;10330;48.816;9.278;2023-02-26T07:14:51;-1.00;99.90
20345;DHT22;10330;48.816;9.278;2023-02-26T07:17:18;-0.90;99.90
20345;DHT22;10330;48.816;9.278;2023-02-26T07:20:02;-0.90;99.90
20345;DHT22;10330;48.816;9.278;2023-02-26T07:22:45;-0.80;99.90
20345;DHT22;10330;48.816;9.278;2023-02-26T07:25:17;-0.70;99.90
20345;DHT22;10330;48.816;9.278;2023-02-26T07:27:44;-0.50;99.90
20345;DHT22;10330;48.816;9.278;2023-02-26T07:30:19;-0.40;99.90
20345;DHT22;10330;48.816;9.278;2023-02-26T07:32:49;-0.40;99.90
20345;DHT22;10330;48.816;9.278;2023-02-26T07:35:15;-0.30;99.90
20345;DHT22;10330;48.816;9.278;2023-02-26T07:37:42;-0.20;99.90
20345;DHT22;10330;48.816;9.278;2023-02-26T07:40:09;-0.10;99.90
20345;DHT22;10330;48.816;9.278;2023-02-26T07:42:38;-0.10;99.90
20345;DHT22;10330;48.816;9.278;2023-02-26T07:46:13;0.10;99.90
20345;DHT22;10330;48.816;9.278;2023-02-26T07:48:20;0.20;99.90
20345;DHT22;10330;48.816;9.278;2023-02-26T07:50:49;0.20;99.90
20345;DHT22;10330;48.816;9.278;2023-02-26T07:53:36;0.20;99.90
20345;DHT22;10330;48.816;9.278;2023-02-26T07:56:03;0.20;99.90
20345;DHT22;10330;48.816;9.278;2023-02-26T07:58:31;0.30;99.90
20345;DHT22;10330;48.816;9.278;2023-02-26T08:00:58;0.40;99.90
20345;DHT22;10330;48.816;9.278;2023-02-26T08:03:26;0.60;99.90
20345;DHT22;10330;48.816;9.278;2023-02-26T08:05:53;0.60;99.90
20345;DHT22;10330;48.816;9.278;2023-02-26T08:08:19;0.60;99.90
20345;DHT22;10330;48.816;9.278;2023-02-26T08:10:45;0.60;99.90
20345;DHT22;10330;48.816;9.278;2023-02-26T08:13:12;0.70;99.90
20345;DHT22;10330;48.816;9.278;2023-02-26T08:15:38;0.70;99.90
20345;DHT22;10330;48.816;9.278;2023-02-26T08:18:06;0.80;99.90
20345;DHT22;10330;48.816;9.278;2023-02-26T08:20:32;0.70;99.90
20345;DHT22;10330;48.816;9.278;2023-02-26T08:22:59;0.80;99.90
20345;DHT22;10330;48.816;9.278;2023-02-26T08:25:29;0.90;99.90
20345;DHT22;10330;48.816;9.278;2023-02-26T08:27:55;0.90;99.90
20345;DHT22;10330;48.816;9.278;2023-02-26T08:30:23;1.00;99.90
20345;DHT22;10330;48.816;9.278;2023-02-26T08:32:49;1.10;99.90
20345;DHT22;10330;48.816;9.278;2023-02-26T08:35:16;1.20;99.90
20345;DHT22;10330;48.816;9.278;2023-02-26T08:37:42;1.30;99.90
20345;DHT22;10330;48.816;9.278;2023-02-26T08:40:10;1.20;99.90
20345;DHT22;10330;48.816;9.278;2023-02-26T08:42:36;1.10;99.90
20345;DHT22;10330;48.816;9.278;2023-02-26T08:45:03;1.00;99.90
20345;DHT22;10330;48.816;9.278;2023-02-26T08:47:29;0.90;99.90
20345;DHT22;10330;48.816;9.278;2023-02-26T08:49:56;0.70;99.90
20345;DHT22;10330;48.816;9.278;2023-02-26T08:52:23;0.80;99.90
20345;DHT22;10330;48.816;9.278;2023-02-26T08:54:50;0.70;99.90
20345;DHT22;10330;48.816;9.278;2023-02-26T08:57:17;0.70;99.90
20345;DHT22;10330;48.816;9.278;2023-02-26T08:59:43;0.70;99.90
20345;DHT22;10330;48.816;9.278;2023-02-26T09:02:14;0.80;99.90
20345;DHT22;10330;48.816;9.278;2023-02-26T09:04:40;0.90;99.90
20345;DHT22;10330;48.816;9.278;2023-02-26T09:07:07;1.00;99.90
20345;DHT22;10330;48.816;9.278;2023-02-26T09:09:33;1.10;99.90
20345;DHT22;10330;48.816;9.278;2023-02-26T09:12:00;1.20;99.90
20345;DHT22;10330;48.816;9.278;2023-02-26T09:14:28;1.20;99.90
20345;DHT22;10330;48.816;9.278;2023-02-26T09:16:55;1.20;99.90
20345;DHT22;10330;48.816;9.278;2023-02-26T09:19:22;1.20;99.90
20345;DHT22;10330;48.816;9.278;2023-02-26T09:21:48;1.20;99.90
20345;DHT22;10330;48.816;9.278;2023-02-26T09:24:15;1.10;99.90
20345;DHT22;10330;48.816;9.278;2023-02-26T09:26:41;1.10;99.90
20345;DHT22;10330;48.816;9.278;2023-02-26T09:32:12;1.20;99.90
20345;DHT22;10330;48.816;9.278;2023-02-26T09:34:38;1.10;99.90
20345;DHT22;10330;48.816;9.278;2023-02-26T09:37:07;1.10;99.90
20345;DHT22;10330;48.816;9.278;2023-02-26T09:39:34;1.10;99.90
20345;DHT22;10330;48.816;9.278;2023-02-26T09:45:01;1.20;99.90
20345;DHT22;10330;48.816;9.278;2023-02-26T09:47:42;1.10;99.90
20345;DHT22;10330;48.816;9.278;2023-02-26T09:50:47;1.10;99.90
20345;DHT22;10330;48.816;9.278;2023-02-26T09:53:27;1.20;99.90
20345;DHT22;10330;48.816;9.278;2023-02-26T09:56:06;1.10;99.90
20345;DHT22;10330;48.816;9.278;2023-02-26T09:58:40;1.30;99.90
20345;DHT22;10330;48.816;9.278;2023-02-26T10:10:00;1.50;99.90
20345;DHT22;10330;48.816;9.278;2023-02-26T10:12:30;1.50;99.90
20345;DHT22;10330;48.816;9.278;2023-02-26T10:15:15;1.50;99.90
20345;DHT22;10330;48.816;9.278;2023-02-26T10:20:12;1.60;99.90
20345;DHT22;10330;48.816;9.278;2023-02-26T10:25:25;1.70;99.90
20345;DHT22;10330;48.816;9.278;2023-02-26T10:30:59;1.90;99.90
20345;DHT22;10330;48.816;9.278;2023-02-26T10:33:46;2.00;99.90
20345;DHT22;10330;48.816;9.278;2023-02-26T10:36:27;1.90;99.90
20345;DHT22;10330;48.816;9.278;2023-02-26T10:41:44;1.90;99.90
20345;DHT22;10330;48.816;9.278;2023-02-26T10:44:37;1.80;99.90
20345;DHT22;10330;48.816;9.278;2023-02-26T10:50:19;1.80;99.90
20345;DHT22;10330;48.816;9.278;2023-02-26T10:52:46;1.80;99.90
20345;DHT22;10330;48.816;9.278;2023-02-26T10:55:28;1.80;99.90
20345;DHT22;10330;48.816;9.278;2023-02-26T11:00:42;1.70;99.90
20345;DHT22;10330;48.816;9.278;2023-02-26T11:03:20;1.80;99.90
20345;DHT22;10330;48.816;9.278;2023-02-26T11:05:47;1.80;99.90
20345;DHT22;10330;48.816;9.278;2023-02-26T11:08:25;1.80;99.90
20345;DHT22;10330;48.816;9.278;2023-02-26T11:10:54;1.80;99.90
20345;DHT22;10330;48.816;9.278;2023-02-26T11:13:26;2.10;99.90
20345;DHT22;10330;48.816;9.278;2023-02-26T11:15:56;2.40;99.90
20345;DHT22;10330;48.816;9.278;2023-02-26T11:18:26;2.60;99.90
20345;DHT22;10330;48.816;9.278;2023-02-26T11:20:57;2.60;99.90
20345;DHT22;10330;48.816;9.278;2023-02-26T11:23:28;2.70;99.90
20345;DHT22;10330;48.816;9.278;2023-02-26T11:26:15;2.60;99.90
20345;DHT22;10330;48.816;9.278;2023-02-26T11:28:45;2.80;99.90
20345;DHT22;10330;48.816;9.278;2023-02-26T11:31:17;2.60;99.90
20345;DHT22;10330;48.816;9.278;2023-02-26T11:33:47;2.80;99.90
20345;DHT22;10330;48.816;9.278;2023-02-26T11:36:17;2.70;99.90
20345;DHT22;10330;48.816;9.278;2023-02-26T11:38:54;2.70;99.90
20345;DHT22;10330;48.816;9.278;2023-02-26T11:41:22;2.80;99.90
20345;DHT22;10330;48.816;9.278;2023-02-26T11:44:07;2.80;99.90
20345;DHT22;10330;48.816;9.278;2023-02-26T11:46:44;2.70;99.90
20345;DHT22;10330;48.816;9.278;2023-02-26T11:49:24;2.90;99.90
20345;DHT22;10330;48.816;9.278;2023-02-26T11:54:44;2.80;99.90
20345;DHT22;10330;48.816;9.278;2023-02-26T11:57:27;2.80;99.90
20345;DHT22;10330;48.816;9.278;2023-02-26T11:59:56;2.60;99.90
20345;DHT22;10330;48.816;9.278;2023-02-26T12:02:24;2.50;99.90
20345;DHT22;10330;48.816;9.278;2023-02-26T12:04:56;2.50;99.90
20345;DHT22;10330;48.816;9.278;2023-02-26T12:07:23;2.50;99.90
20345;DHT22;10330;48.816;9.278;2023-02-26T12:09:49;2.40;99.90
20345;DHT22;10330;48.816;9.278;2023-02-26T12:12:37;2.50;99.90
20345;DHT22;10330;48.816;9.278;2023-02-26T12:15:19;2.40;99.90
20345;DHT22;10330;48.816;9.278;2023-02-26T12:18:29;2.60;99.90
20345;DHT22;10330;48.816;9.278;2023-02-26T12:29:03;2.40;99.90
20345;DHT22;10330;48.816;9.278;2023-02-26T12:37:12;2.40;99.90
20345;DHT22;10330;48.816;9.278;2023-02-26T12:45:33;2.50;99.90
20345;DHT22;10330;48.816;9.278;2023-02-26T13:01:50;3.30;99.90
20345;DHT22;10330;48.816;9.278;2023-02-26T13:04:41;3.20;99.90
20345;DHT22;10330;48.816;9.278;2023-02-26T13:13:29;3.20;99.90
20345;DHT22;10330;48.816;9.278;2023-02-26T13:16:11;3.10;99.90
20345;DHT22;10330;48.816;9.278;2023-02-26T13:21:21;3.10;99.90
20345;DHT22;10330;48.816;9.278;2023-02-26T13:23:53;3.10;99.90
20345;DHT22;10330;48.816;9.278;2023-02-26T13:26:20;3.10;99.90
20345;DHT22;10330;48.816;9.278;2023-02-26T13:28:59;3.10;99.90
20345;DHT22;10330;48.816;9.278;2023-02-26T13:31:35;3.20;99.90
20345;DHT22;10330;48.816;9.278;2023-02-26T13:34:27;3.40;99.90
20345;DHT22;10330;48.816;9.278;2023-02-26T13:36:54;3.40;99.90
20345;DHT22;10330;48.816;9.278;2023-02-26T13:39:45;3.30;99.90
20345;DHT22;10330;48.816;9.278;2023-02-26T13:42:42;3.20;99.90
20345;DHT22;10330;48.816;9.278;2023-02-26T13:45:37;3.30;99.90
20345;DHT22;10330;48.816;9.278;2023-02-26T13:48:19;3.30;99.90
20345;DHT22;10330;48.816;9.278;2023-02-26T13:51:08;3.40;99.90
20345;DHT22;10330;48.816;9.278;2023-02-26T13:54:02;3.60;99.90
20345;DHT22;10330;48.816;9.278;2023-02-26T14:04:22;4.00;99.90
20345;DHT22;10330;48.816;9.278;2023-02-26T14:20:11;3.80;99.90
20345;DHT22;10330;48.816;9.278;2023-02-26T14:22:41;4.20;99.90
20345;DHT22;10330;48.816;9.278;2023-02-26T14:30:58;3.90;99.90
20345;DHT22;10330;48.816;9.278;2023-02-26T14:33:31;3.70;99.90
20345;DHT22;10330;48.816;9.278;2023-02-26T14:36:04;3.70;99.90
20345;DHT22;10330;48.816;9.278;2023-02-26T14:38:35;3.60;99.90
20345;DHT22;10330;48.816;9.278;2023-02-26T14:41:06;3.70;99.90
20345;DHT22;10330;48.816;9.278;2023-02-26T14:43:39;3.70;99.90
20345;DHT22;10330;48.816;9.278;2023-02-26T14:46:07;3.70;99.90
20345;DHT22;10330;48.816;9.278;2023-02-26T14:48:35;3.80;99.90
20345;DHT22;10330;48.816;9.278;2023-02-26T14:51:10;3.90;99.90
20345;DHT22;10330;48.816;9.278;2023-02-26T15:10:06;4.00;99.90
20345;DHT22;10330;48.816;9.278;2023-02-26T15:12:51;3.90;99.90
20345;DHT22;10330;48.816;9.278;2023-02-26T15:18:41;3.60;99.90
20345;DHT22;10330;48.816;9.278;2023-02-26T15:23:58;3.30;99.90
20345;DHT22;10330;48.816;9.278;2023-02-26T15:26:34;3.20;99.90
20345;DHT22;10330;48.816;9.278;2023-02-26T15:29:03;3.10;99.90
20345;DHT22;10330;48.816;9.278;2023-02-26T15:31:35;3.10;99.90
20345;DHT22;10330;48.816;9.278;2023-02-26T15:34:05;3.20;99.90
20345;DHT22;10330;48.816;9.278;2023-02-26T15:36:31;3.40;99.90
20345;DHT22;10330;48.816;9.278;2023-02-26T15:39:00;3.70;99.90
20345;DHT22;10330;48.816;9.278;2023-02-26T15:41:30;3.90;99.90
20345;DHT22;10330;48.816;9.278;2023-02-26T15:44:01;4.20;99.90
20345;DHT22;10330;48.816;9.278;2023-02-26T15:46:37;4.10;99.90
20345;DHT22;10330;48.816;9.278;2023-02-26T15:49:14;4.10;99.90
20345;DHT22;10330;48.816;9.278;2023-02-26T15:51:43;4.10;99.90
20345;DHT22;10330;48.816;9.278;2023-02-26T15:54:17;4.00;99.90
20345;DHT22;10330;48.816;9.278;2023-02-26T15:56:45;3.90;99.90
20345;DHT22;10330;48.816;9.278;2023-02-26T15:59:20;3.70;99.90
20345;DHT22;10330;48.816;9.278;2023-02-26T16:01:48;3.40;99.90
20345;DHT22;10330;48.816;9.278;2023-02-26T16:04:20;3.10;99.90
20345;DHT22;10330;48.816;9.278;2023-02-26T16:06:57;2.90;99.90
20345;DHT22;10330;48.816;9.278;2023-02-26T16:09:32;2.80;99.90
20345;DHT22;10330;48.816;9.278;2023-02-26T16:12:22;2.70;99.90
20345;DHT22;10330;48.816;9.278;2023-02-26T16:14:56;2.50;99.90
20345;DHT22;10330;48.816;9.278;2023-02-26T16:17:27;2.40;99.90
20345;DHT22;10330;48.816;9.278;2023-02-26T16:19:56;2.30;99.90
20345;DHT22;10330;48.816;9.278;2023-02-26T16:25:00;2.30;99.90
20345;DHT22;10330;48.816;9.278;2023-02-26T16:27:28;2.30;99.90
20345;DHT22;10330;48.816;9.278;2023-02-26T16:29:58;2.20;99.90
20345;DHT22;10330;48.816;9.278;2023-02-26T16:32:28;2.20;99.90
20345;DHT22;10330;48.816;9.278;2023-02-26T16:34:58;2.20;99.90
20345;DHT22;10330;48.816;9.278;2023-02-26T16:45:19;2.00;99.90
20345;DHT22;10330;48.816;9.278;2023-02-26T16:47:53;2.00;99.90
20345;DHT22;10330;48.816;9.278;2023-02-26T16:50:31;2.00;99.90
20345;DHT22;10330;48.816;9.278;2023-02-26T16:52:59;2.00;99.90
20345;DHT22;10330;48.816;9.278;2023-02-26T16:55:29;1.90;99.90
20345;DHT22;10330;48.816;9.278;2023-02-26T16:57:57;1.90;99.90
20345;DHT22;10330;48.816;9.278;2023-02-26T17:00:27;1.80;99.90
20345;DHT22;10330;48.816;9.278;2023-02-26T17:03:13;1.80;99.90
20345;DHT22;10330;48.816;9.278;2023-02-26T17:05:51;1.70;99.90
20345;DHT22;10330;48.816;9.278;2023-02-26T17:08:19;1.70;99.90
20345;DHT22;10330;48.816;9.278;2023-02-26T17:10:48;1.70;99.90
20345;DHT22;10330;48.816;9.278;2023-02-26T17:13:18;1.60;99.90
20345;DHT22;10330;48.816;9.278;2023-02-26T17:15:46;1.60;99.90
20345;DHT22;10330;48.816;9.278;2023-02-26T17:18:12;1.50;99.90
20345;DHT22;10330;48.816;9.278;2023-02-26T17:20:39;1.50;99.90
20345;DHT22;10330;48.816;9.278;2023-02-26T17:23:07;1.50;99.90
20345;DHT22;10330;48.816;9.278;2023-02-26T17:25:40;1.50;99.90
20345;DHT22;10330;48.816;9.278;2023-02-26T17:28:20;1.50;99.90
20345;DHT22;10330;48.816;9.278;2023-02-26T17:30:46;1.50;99.90
20345;DHT22;10330;48.816;9.278;2023-02-26T17:33:13;1.50;99.90
20345;DHT22;10330;48.816;9.278;2023-02-26T17:35:40;1.50;99.90
20345;DHT22;10330;48.816;9.278;2023-02-26T17:38:09;1.40;99.90
20345;DHT22;10330;48.816;9.278;2023-02-26T17:40:39;1.40;99.90
20345;DHT22;10330;48.816;9.278;2023-02-26T17:43:06;1.40;99.90
20345;DHT22;10330;48.816;9.278;2023-02-26T17:45:34;1.40;99.90
20345;DHT22;10330;48.816;9.278;2023-02-26T17:48:01;1.30;99.90
20345;DHT22;10330;48.816;9.278;2023-02-26T17:53:13;1.30;99.90
20345;DHT22;10330;48.816;9.278;2023-02-26T17:55:40;1.30;99.90
20345;DHT22;10330;48.816;9.278;2023-02-26T17:58:15;1.20;99.90
20345;DHT22;10330;48.816;9.278;2023-02-26T18:00:43;1.20;99.90
20345;DHT22;10330;48.816;9.278;2023-02-26T18:03:14;1.00;99.90
20345;DHT22;10330;48.816;9.278;2023-02-26T18:05:41;1.10;99.90
20345;DHT22;10330;48.816;9.278;2023-02-26T18:08:38;1.00;99.90
20345;DHT22;10330;48.816;9.278;2023-02-26T18:11:06;1.00;99.90
20345;DHT22;10330;48.816;9.278;2023-02-26T18:13:32;0.90;99.90
20345;DHT22;10330;48.816;9.278;2023-02-26T18:15:59;0.80;99.90
20345;DHT22;10330;48.816;9.278;2023-02-26T18:18:28;0.80;99.90
20345;DHT22;10330;48.816;9.278;2023-02-26T18:20:55;0.80;99.90
20345;DHT22;10330;48.816;9.278;2023-02-26T18:23:21;0.80;99.90
20345;DHT22;10330;48.816;9.278;2023-02-26T18:25:49;0.70;99.90
20345;DHT22;10330;48.816;9.278;2023-02-26T18:28:20;0.70;99.90
20345;DHT22;10330;48.816;9.278;2023-02-26T18:30:48;0.60;99.90
20345;DHT22;10330;48.816;9.278;2023-02-26T18:33:14;0.60;99.90
20345;DHT22;10330;48.816;9.278;2023-02-26T18:35:45;0.60;99.90
20345;DHT22;10330;48.816;9.278;2023-02-26T18:38:14;0.60;99.90
20345;DHT22;10330;48.816;9.278;2023-02-26T18:40:41;0.50;99.90
20345;DHT22;10330;48.816;9.278;2023-02-26T18:43:07;0.50;99.90
20345;DHT22;10330;48.816;9.278;2023-02-26T18:45:41;0.50;99.90
20345;DHT22;10330;48.816;9.278;2023-02-26T18:48:09;0.50;99.90
20345;DHT22;10330;48.816;9.278;2023-02-26T18:50:37;0.50;99.90
20345;DHT22;10330;48.816;9.278;2023-02-26T18:53:03;0.50;99.90
20345;DHT22;10330;48.816;9.278;2023-02-26T18:55:30;0.40;99.90
20345;DHT22;10330;48.816;9.278;2023-02-26T18:57:56;0.40;99.90
20345;DHT22;10330;48.816;9.278;2023-02-26T19:00:22;0.40;99.90
20345;DHT22;10330;48.816;9.278;2023-02-26T19:02:49;0.40;99.90
20345;DHT22;10330;48.816;9.278;2023-02-26T19:05:15;0.40;99.90
20345;DHT22;10330;48.816;9.278;2023-02-26T19:07:43;0.40;99.90
20345;DHT22;10330;48.816;9.278;2023-02-26T19:10:11;0.40;99.90
20345;DHT22;10330;48.816;9.278;2023-02-26T19:12:40;0.40;99.90
20345;DHT22;10330;48.816;9.278;2023-02-26T19:15:06;0.30;99.90
20345;DHT22;10330;48.816;9.278;2023-02-26T19:17:33;0.30;99.90
20345;DHT22;10330;48.816;9.278;2023-02-26T19:19:59;0.30;99.90
20345;DHT22;10330;48.816;9.278;2023-02-26T19:22:26;0.20;99.90
20345;DHT22;10330;48.816;9.278;2023-02-26T19:24:52;0.20;99.90
20345;DHT22;10330;48.816;9.278;2023-02-26T19:27:19;0.20;99.90
20345;DHT22;10330;48.816;9.278;2023-02-26T19:29:46;0.10;99.90
20345;DHT22;10330;48.816;9.278;2023-02-26T19:32:12;0.10;99.90
20345;DHT22;10330;48.816;9.278;2023-02-26T19:34:38;0.10;99.90
20345;DHT22;10330;48.816;9.278;2023-02-26T19:37:04;0.10;99.90
20345;DHT22;10330;48.816;9.278;2023-02-26T19:39:31;0.10;99.90
20345;DHT22;10330;48.816;9.278;2023-02-26T19:41:59;0.10;99.90
20345;DHT22;10330;48.816;9.278;2023-02-26T19:44:26;0.10;99.90
20345;DHT22;10330;48.816;9.278;2023-02-26T19:46:53;0.10;99.90
20345;DHT22;10330;48.816;9.278;2023-02-26T19:49:19;0.00;99.90
20345;DHT22;10330;48.816;9.278;2023-02-26T19:51:45;0.00;99.90
20345;DHT22;10330;48.816;9.278;2023-02-26T19:54:11;0.00;99.90
20345;DHT22;10330;48.816;9.278;2023-02-26T19:56:40;0.00;99.90
20345;DHT22;10330;48.816;9.278;2023-02-26T19:59:06;-0.10;99.90
20345;DHT22;10330;48.816;9.278;2023-02-26T20:01:33;-0.10;99.90
20345;DHT22;10330;48.816;9.278;2023-02-26T20:03:59;0.00;99.90
20345;DHT22;10330;48.816;9.278;2023-02-26T20:06:26;0.00;99.90
20345;DHT22;10330;48.816;9.278;2023-02-26T20:08:52;0.00;99.90
20345;DHT22;10330;48.816;9.278;2023-02-26T20:11:18;-0.10;99.90
20345;DHT22;10330;48.816;9.278;2023-02-26T20:13:45;-0.10;99.90
20345;DHT22;10330;48.816;9.278;2023-02-26T20:16:12;-0.10;99.90
20345;DHT22;10330;48.816;9.278;2023-02-26T20:18:38;-0.10;99.90
20345;DHT22;10330;48.816;9.278;2023-02-26T20:21:07;-0.10;99.90
20345;DHT22;10330;48.816;9.278;2023-02-26T20:23:35;-0.10;99.90